createdAt,value
2022-09-17T00:00:53.565Z,9.67
2022-09-17T00:03:21.290Z,9.71
2022-09-17T00:05:49.006Z,9.68
2022-09-17T00:08:16.670Z,9.61
2022-09-17T00:10:45.811Z,9.51
2022-09-17T00:13:13.492Z,9.47
2022-09-17T00:15:42.641Z,9.51
2022-09-17T00:18:10.714Z,9.58
2022-09-17T00:20:41.588Z,9.59
2022-09-17T00:23:09.714Z,9.57
2022-09-17T00:25:39.579Z,9.60
2022-09-17T00:28:10.497Z,9.68
2022-09-17T00:30:40.904Z,9.68
2022-09-17T00:33:08.979Z,9.79
2022-09-17T00:35:36.688Z,9.72
2022-09-17T00:38:04.599Z,9.72
2022-09-17T00:40:32.423Z,9.64
2022-09-17T00:43:00.135Z,9.69
2022-09-17T00:45:30.045Z,9.69
2022-09-17T00:48:00.151Z,9.70
2022-09-17T00:50:31.224Z,9.72
2022-09-17T00:53:02.680Z,9.72
2022-09-17T00:55:34.446Z,9.67
2022-09-17T00:58:05.641Z,9.71
2022-09-17T01:00:35.055Z,9.62
2022-09-17T01:03:02.790Z,9.60
2022-09-17T01:05:37.287Z,9.62
2022-09-17T01:08:13.849Z,9.61
2022-09-17T01:11:13.860Z,9.58
2022-09-17T01:13:53.467Z,9.59
2022-09-17T01:16:32.542Z,9.62
2022-09-17T01:19:12.703Z,9.65
2022-09-17T01:21:52.148Z,9.61
2022-09-17T01:24:44.539Z,9.66
2022-09-17T01:27:43.691Z,9.61
2022-09-17T01:30:29.351Z,9.49
2022-09-17T01:33:00.576Z,9.46
2022-09-17T01:35:38.153Z,9.43
2022-09-17T01:38:13.198Z,9.46
2022-09-17T01:40:52.824Z,9.37
2022-09-17T01:43:27.916Z,9.40
2022-09-17T01:46:06.905Z,9.34
2022-09-17T01:48:38.254Z,9.34
2022-09-17T01:51:08.826Z,9.31
2022-09-17T01:53:40.812Z,9.35
2022-09-17T01:56:12.726Z,9.39
2022-09-17T01:58:46.864Z,9.36
2022-09-17T02:01:18.715Z,9.40
2022-09-17T02:03:52.023Z,9.39
2022-09-17T02:06:25.694Z,9.56
2022-09-17T02:08:57.414Z,9.52
2022-09-17T02:11:26.286Z,9.49
2022-09-17T02:13:59.597Z,9.49
2022-09-17T02:16:31.730Z,9.43
2022-09-17T02:19:07.531Z,9.50
2022-09-17T02:21:44.998Z,9.47
2022-09-17T02:24:18.970Z,9.37
2022-09-17T02:26:52.233Z,9.37
2022-09-17T02:29:27.490Z,9.31
2022-09-17T02:31:56.740Z,9.28
2022-09-17T02:34:27.550Z,9.27
2022-09-17T02:37:01.833Z,9.23
2022-09-17T02:39:29.549Z,9.24
2022-09-17T02:42:06.914Z,9.22
2022-09-17T02:44:47.385Z,9.23
2022-09-17T02:47:53.760Z,9.26
2022-09-17T02:50:52.589Z,9.19
2022-09-17T02:53:36.339Z,9.22
2022-09-17T02:56:13.971Z,9.15
2022-09-17T02:58:48.493Z,9.19
2022-09-17T03:01:22.024Z,9.15
2022-09-17T03:03:53.868Z,9.16
2022-09-17T03:06:22.504Z,9.11
2022-09-17T03:08:50.347Z,9.12
2022-09-17T03:11:18.177Z,9.08
2022-09-17T03:13:45.970Z,9.00
2022-09-17T03:16:13.677Z,8.98
2022-09-17T03:18:41.425Z,8.95
2022-09-17T03:21:12.428Z,8.98
2022-09-17T03:23:40.213Z,9.01
2022-09-17T03:26:07.924Z,8.95
2022-09-17T03:28:35.627Z,8.85
2022-09-17T03:31:03.735Z,8.82
2022-09-17T03:33:31.477Z,8.76
2022-09-17T03:35:59.181Z,8.67
2022-09-17T03:38:28.605Z,8.61
2022-09-17T03:41:00.187Z,8.52
2022-09-17T03:43:28.175Z,8.61
2022-09-17T03:45:55.921Z,8.49
2022-09-17T03:48:23.882Z,8.47
2022-09-17T03:50:51.622Z,8.50
2022-09-17T03:53:19.610Z,8.57
2022-09-17T03:55:48.633Z,8.62
2022-09-17T03:58:16.278Z,8.66
2022-09-17T04:00:44.036Z,8.65
2022-09-17T04:03:12.706Z,8.60
2022-09-17T04:05:40.371Z,8.60
2022-09-17T04:08:08.059Z,8.62
2022-09-17T04:10:35.759Z,8.59
2022-09-17T04:13:04.818Z,8.59
2022-09-17T04:15:32.536Z,8.63
2022-09-17T04:18:00.271Z,8.63
2022-09-17T04:20:28.787Z,8.66
2022-09-17T04:22:56.473Z,8.72
2022-09-17T04:25:24.489Z,8.71
2022-09-17T04:27:52.465Z,8.76
2022-09-17T04:30:21.693Z,8.70
2022-09-17T04:32:49.375Z,8.66
2022-09-17T04:35:17.570Z,8.65
2022-09-17T04:37:45.273Z,8.63
2022-09-17T04:40:13.058Z,8.65
2022-09-17T04:42:40.847Z,8.79
2022-09-17T04:45:08.950Z,8.80
2022-09-17T04:47:40.908Z,8.87
2022-09-17T04:50:09.282Z,8.86
2022-09-17T04:52:36.977Z,8.95
2022-09-17T04:55:05.427Z,9.01
2022-09-17T04:57:33.124Z,9.02
2022-09-17T05:00:00.833Z,8.95
2022-09-17T05:02:28.629Z,8.95
2022-09-17T05:04:58.334Z,9.03
2022-09-17T05:07:26.190Z,9.01
2022-09-17T05:09:53.909Z,9.01
2022-09-17T05:12:21.619Z,9.07
2022-09-17T05:14:49.309Z,8.92
2022-09-17T05:17:17.217Z,8.93
2022-09-17T05:19:44.922Z,8.95
2022-09-17T05:22:16.388Z,9.05
2022-09-17T05:24:46.098Z,8.96
2022-09-17T05:27:14.008Z,9.11
2022-09-17T05:29:41.709Z,9.17
2022-09-17T05:32:09.424Z,9.20
2022-09-17T05:34:37.147Z,9.21
2022-09-17T05:37:04.852Z,9.19
2022-09-17T05:39:33.923Z,9.16
2022-09-17T05:42:01.650Z,9.11
2022-09-17T05:44:29.791Z,9.09
2022-09-17T05:46:57.561Z,9.01
2022-09-17T05:49:25.303Z,9.03
2022-09-17T05:51:53.027Z,8.99
2022-09-17T05:54:20.771Z,8.96
2022-09-17T05:56:49.816Z,8.94
2022-09-17T05:59:17.536Z,8.92
2022-09-17T06:01:46.063Z,8.93
2022-09-17T06:04:14.025Z,8.93
2022-09-17T06:06:41.847Z,8.90
2022-09-17T06:09:10.461Z,9.02
2022-09-17T06:11:38.559Z,9.12
2022-09-17T06:14:07.672Z,9.05
2022-09-17T06:16:35.513Z,9.01
2022-09-17T06:19:04.154Z,9.08
2022-09-17T06:21:31.959Z,9.08
2022-09-17T06:23:59.781Z,9.01
2022-09-17T06:26:27.604Z,9.05
2022-09-17T06:28:55.347Z,9.06
2022-09-17T06:31:24.498Z,8.97
2022-09-17T06:33:52.701Z,9.05
2022-09-17T06:36:20.538Z,9.12
2022-09-17T06:38:48.228Z,9.12
2022-09-17T06:41:16.953Z,9.18
2022-09-17T06:43:45.017Z,9.33
2022-09-17T06:46:13.297Z,9.40
2022-09-17T06:48:42.411Z,9.39
2022-09-17T06:51:12.347Z,9.35
2022-09-17T06:53:40.711Z,9.16
2022-09-17T06:56:10.268Z,9.09
2022-09-17T06:58:38.848Z,9.15
2022-09-17T07:01:07.369Z,9.16
2022-09-17T07:03:35.485Z,9.25
2022-09-17T07:06:05.212Z,9.34
2022-09-17T07:08:35.033Z,9.52
2022-09-17T07:11:02.970Z,9.47
2022-09-17T07:13:30.734Z,9.37
2022-09-17T07:16:00.849Z,9.24
2022-09-17T07:18:28.982Z,9.36
2022-09-17T07:20:57.751Z,9.63
2022-09-17T07:23:29.066Z,9.76
2022-09-17T07:25:58.741Z,10.04
2022-09-17T07:28:27.164Z,10.38
2022-09-17T07:30:55.663Z,10.51
2022-09-17T07:33:26.143Z,10.58
2022-09-17T07:35:54.768Z,10.58
2022-09-17T07:38:22.812Z,10.66
2022-09-17T07:41:00.108Z,10.67
2022-09-17T07:43:29.904Z,10.78
2022-09-17T07:45:59.125Z,10.83
2022-09-17T07:48:28.155Z,10.88
2022-09-17T07:50:56.787Z,11.02
2022-09-17T07:53:24.862Z,11.04
2022-09-17T07:55:53.314Z,11.11
2022-09-17T07:58:22.857Z,10.77
2022-09-17T08:00:51.012Z,10.35
2022-09-17T08:03:18.755Z,10.23
2022-09-17T08:05:46.472Z,10.33
2022-09-17T08:08:17.652Z,10.25
2022-09-17T08:10:48.155Z,10.04
2022-09-17T08:13:18.664Z,9.99
2022-09-17T08:15:47.784Z,9.96
2022-09-17T08:18:17.283Z,9.94
2022-09-17T08:20:45.064Z,10.02
2022-09-17T08:23:12.794Z,10.05
2022-09-17T08:25:40.486Z,10.21
2022-09-17T08:28:08.213Z,10.33
2022-09-17T08:30:35.923Z,10.50
2022-09-17T08:33:05.020Z,10.71
2022-09-17T08:35:32.743Z,10.94
2022-09-17T08:38:00.659Z,11.04
2022-09-17T08:40:28.539Z,11.21
2022-09-17T08:43:00.538Z,11.48
2022-09-17T08:45:28.767Z,11.75
2022-09-17T08:48:05.097Z,11.71
2022-09-17T08:50:39.121Z,11.78
2022-09-17T08:53:27.954Z,11.29
2022-09-17T08:56:05.673Z,11.08
2022-09-17T08:58:42.267Z,11.12
2022-09-17T09:01:25.117Z,11.13
2022-09-17T09:04:16.157Z,10.91
2022-09-17T09:06:50.472Z,10.77
2022-09-17T09:09:21.128Z,10.57
2022-09-17T09:11:51.169Z,10.49
2022-09-17T09:14:24.066Z,10.59
2022-09-17T09:16:55.214Z,10.88
2022-09-17T09:19:25.016Z,11.06
2022-09-17T09:22:04.713Z,10.87
2022-09-17T09:24:46.797Z,10.75
2022-09-17T09:27:21.859Z,10.73
2022-09-17T09:30:03.767Z,10.73
2022-09-17T09:32:44.835Z,10.94
2022-09-17T09:35:19.396Z,10.94
2022-09-17T09:37:55.368Z,10.93
2022-09-17T09:40:33.494Z,10.75
2022-09-17T09:43:04.556Z,10.77
2022-09-17T09:45:50.329Z,10.67
2022-09-17T09:48:31.497Z,10.77
2022-09-17T09:51:14.943Z,10.98
2022-09-17T09:53:56.068Z,11.12
2022-09-17T09:56:35.207Z,11.40
2022-09-17T09:59:02.894Z,11.35
2022-09-17T10:01:32.446Z,11.14
2022-09-17T10:04:00.264Z,10.88
2022-09-17T10:06:32.026Z,10.81
2022-09-17T10:09:16.457Z,10.68
2022-09-17T10:11:59.761Z,10.75
2022-09-17T10:14:30.108Z,10.66
2022-09-17T10:17:17.612Z,10.43
2022-09-17T10:19:46.693Z,10.00
2022-09-17T10:22:33.842Z,9.85
2022-09-17T10:25:04.768Z,9.52
2022-09-17T10:27:33.296Z,9.41
2022-09-17T10:30:14.429Z,9.26
2022-09-17T10:32:42.670Z,9.03
2022-09-17T10:35:27.493Z,9.01
2022-09-17T10:37:55.717Z,8.93
2022-09-17T10:40:31.031Z,8.97
2022-09-17T10:43:22.312Z,9.01
2022-09-17T10:46:01.192Z,9.17
2022-09-17T10:48:33.906Z,9.21
2022-09-17T10:51:03.282Z,9.19
2022-09-17T10:53:30.989Z,8.98
2022-09-17T10:56:15.150Z,9.02
2022-09-17T10:58:56.153Z,9.23
2022-09-17T11:01:36.305Z,9.49
2022-09-17T11:04:25.830Z,9.50
2022-09-17T11:07:33.303Z,9.34
2022-09-17T11:10:12.397Z,9.49
2022-09-17T11:13:04.250Z,9.62
2022-09-17T11:15:52.918Z,9.66
2022-09-17T11:18:37.315Z,9.86
2022-09-17T11:21:27.604Z,9.98
2022-09-17T11:24:22.253Z,9.68
2022-09-17T11:26:58.129Z,9.45
2022-09-17T11:29:43.226Z,9.44
2022-09-17T11:32:31.002Z,9.56
2022-09-17T11:35:03.990Z,9.78
2022-09-17T11:37:38.960Z,9.88
2022-09-17T11:40:14.268Z,9.88
2022-09-17T11:42:48.006Z,9.77
2022-09-17T11:45:21.473Z,9.59
2022-09-17T11:47:53.265Z,9.54
2022-09-17T11:50:23.925Z,9.72
2022-09-17T11:53:04.754Z,10.02
2022-09-17T11:55:39.453Z,10.22
2022-09-17T11:58:13.911Z,10.13
2022-09-17T12:00:51.300Z,9.99
2022-09-17T12:03:27.314Z,10.09
2022-09-17T12:05:58.082Z,10.23
2022-09-17T12:08:30.401Z,10.35
2022-09-17T12:11:04.221Z,10.15
2022-09-17T12:13:37.505Z,10.50
2022-09-17T12:16:16.946Z,10.78
2022-09-17T12:18:54.089Z,11.24
2022-09-17T12:21:27.897Z,11.19
2022-09-17T12:24:00.172Z,10.75
2022-09-17T12:26:46.706Z,10.68
2022-09-17T12:29:31.147Z,10.50
2022-09-17T12:32:10.225Z,9.95
2022-09-17T12:34:50.367Z,9.79
2022-09-17T12:37:28.530Z,9.47
2022-09-17T12:40:16.949Z,9.26
2022-09-17T12:43:10.904Z,8.94
2022-09-17T12:45:54.909Z,8.62
2022-09-17T12:49:04.178Z,8.62
2022-09-17T12:51:53.108Z,8.92
2022-09-17T12:54:36.500Z,9.31
2022-09-17T12:57:13.809Z,9.67
2022-09-17T12:59:50.414Z,10.07
2022-09-17T13:02:23.737Z,10.67
2022-09-17T13:05:18.608Z,11.02
2022-09-17T13:08:14.226Z,10.71
2022-09-17T13:10:54.347Z,10.80
2022-09-17T13:13:36.773Z,10.91
2022-09-17T13:16:15.565Z,11.16
2022-09-17T13:21:53.408Z,9.82
2022-09-17T13:24:25.178Z,9.28
2022-09-17T13:26:54.807Z,9.01
2022-09-17T13:30:03.928Z,8.85
2022-09-17T13:32:53.861Z,8.85
2022-09-17T13:35:52.391Z,8.80
2022-09-17T13:38:23.908Z,8.89
2022-09-17T13:41:13.807Z,8.98
2022-09-17T13:43:47.726Z,8.82
2022-09-17T13:46:24.457Z,8.80
2022-09-17T13:48:58.445Z,8.78
2022-09-17T13:51:52.598Z,8.79
2022-09-17T13:54:24.461Z,8.95
2022-09-17T13:57:11.022Z,9.19
2022-09-17T13:59:39.512Z,9.44
2022-09-17T14:02:37.401Z,9.70
2022-09-17T14:05:36.758Z,9.70
2022-09-17T14:08:29.036Z,9.68
2022-09-17T14:11:00.787Z,9.82
2022-09-17T14:13:46.390Z,9.92
2022-09-17T14:16:46.348Z,10.04
2022-09-17T14:19:27.874Z,10.15
2022-09-17T14:22:02.574Z,10.33
2022-09-17T14:24:36.983Z,10.30
2022-09-17T14:27:31.099Z,9.91
2022-09-17T14:30:22.066Z,9.89
2022-09-17T14:32:57.561Z,9.93
2022-09-17T14:35:31.033Z,9.89
2022-09-17T14:38:01.252Z,9.66
2022-09-17T14:40:31.844Z,9.67
2022-09-17T14:43:03.195Z,9.56
2022-09-17T14:45:34.287Z,9.64
2022-09-17T14:48:36.948Z,9.60
2022-09-17T14:51:29.702Z,9.68
2022-09-17T14:54:25.021Z,9.97
2022-09-17T14:56:56.009Z,10.12
2022-09-17T14:59:45.295Z,10.02
2022-09-17T15:02:30.261Z,10.02
2022-09-17T15:04:59.085Z,10.00
2022-09-17T15:07:28.078Z,9.73
2022-09-17T15:09:56.211Z,9.26
2022-09-17T15:12:30.645Z,9.19
2022-09-17T15:14:59.034Z,9.10
2022-09-17T15:17:33.860Z,9.11
2022-09-17T15:20:06.640Z,9.24
2022-09-17T15:22:37.776Z,9.36
2022-09-17T15:25:09.560Z,9.22
2022-09-17T15:27:40.510Z,9.05
2022-09-17T15:30:14.545Z,9.04
2022-09-17T15:32:49.613Z,8.80
2022-09-17T15:35:24.512Z,8.60
2022-09-17T15:38:18.849Z,8.48
2022-09-17T15:40:43.825Z,8.43
2022-09-17T15:43:19.732Z,8.37
2022-09-17T15:45:47.564Z,8.31
2022-09-17T15:48:39.526Z,8.41
2022-09-17T15:51:22.499Z,8.42
2022-09-17T15:53:53.311Z,8.47
2022-09-17T15:56:25.179Z,8.41
2022-09-17T15:58:56.196Z,8.45
2022-09-17T16:01:52.159Z,8.41
2022-09-17T16:04:34.980Z,8.36
2022-09-17T16:07:24.248Z,8.29
2022-09-17T16:09:53.171Z,8.44
2022-09-17T16:12:23.268Z,8.49
2022-09-17T16:14:53.335Z,8.58
2022-09-17T16:17:33.000Z,8.52
2022-09-17T16:20:08.907Z,8.50
2022-09-17T16:22:36.611Z,8.42
2022-09-17T16:25:05.190Z,8.40
2022-09-17T16:27:45.357Z,8.36
2022-09-17T16:30:17.593Z,8.36
2022-09-17T16:32:45.281Z,8.33
2022-09-17T16:35:17.893Z,8.33
2022-09-17T16:37:45.959Z,8.30
2022-09-17T16:40:14.294Z,8.24
2022-09-17T16:42:42.047Z,8.25
2022-09-17T16:45:11.896Z,8.28
2022-09-17T16:47:44.802Z,8.33
2022-09-17T16:50:15.903Z,8.32
2022-09-17T16:52:43.982Z,8.28
2022-09-17T16:55:13.617Z,8.30
2022-09-17T16:57:41.590Z,8.31
2022-09-17T17:00:14.041Z,8.33
2022-09-17T17:02:41.828Z,8.29
2022-09-17T17:05:11.473Z,8.26
2022-09-17T17:07:45.441Z,8.27
2022-09-17T17:10:15.390Z,8.21
2022-09-17T17:12:43.159Z,8.10
2022-09-17T17:15:11.245Z,8.04
2022-09-17T17:17:39.125Z,7.99
2022-09-17T17:20:09.502Z,7.96
2022-09-17T17:22:38.051Z,7.88
2022-09-17T17:25:08.355Z,7.83
2022-09-17T17:27:39.184Z,7.80
2022-09-17T17:30:16.700Z,7.75
2022-09-17T17:32:45.884Z,7.64
2022-09-17T17:35:13.568Z,7.66
2022-09-17T17:37:41.267Z,7.63
2022-09-17T17:40:11.389Z,7.62
2022-09-17T17:42:44.147Z,7.59
2022-09-17T17:45:12.289Z,7.58
2022-09-17T17:47:40.046Z,7.49
2022-09-17T17:50:08.647Z,7.49
2022-09-17T17:52:39.016Z,7.55
2022-09-17T17:55:07.600Z,7.56
2022-09-17T17:57:36.664Z,7.57
2022-09-17T18:00:05.055Z,7.53
2022-09-17T18:02:32.892Z,7.47
2022-09-17T18:05:04.092Z,7.45
2022-09-17T18:07:32.285Z,7.37
2022-09-17T18:10:00.047Z,7.30
2022-09-17T18:12:27.898Z,7.28
2022-09-17T18:14:57.047Z,7.26
2022-09-17T18:17:24.821Z,7.24
2022-09-17T18:19:52.602Z,7.26
2022-09-17T18:22:20.350Z,7.26
2022-09-17T18:24:48.180Z,7.32
2022-09-17T18:27:17.602Z,7.33
2022-09-17T18:29:45.310Z,7.36
2022-09-17T18:32:14.409Z,7.40
2022-09-17T18:34:42.481Z,7.43
2022-09-17T18:37:10.801Z,7.43
2022-09-17T18:39:58.009Z,7.44
2022-09-17T18:42:28.790Z,7.41
2022-09-17T18:44:58.214Z,7.47
2022-09-17T18:47:27.311Z,7.49
2022-09-17T18:49:55.046Z,7.52
2022-09-17T18:52:22.741Z,7.58
2022-09-17T18:54:50.656Z,7.57
2022-09-17T18:57:18.371Z,7.58
2022-09-17T18:59:46.308Z,7.60
2022-09-17T19:02:14.175Z,7.61
2022-09-17T19:04:43.414Z,7.63
2022-09-17T19:07:11.617Z,7.66
2022-09-17T19:09:42.249Z,7.68
2022-09-17T19:12:09.929Z,7.72
2022-09-17T19:14:37.674Z,7.73
2022-09-17T19:17:05.493Z,7.73
2022-09-17T19:19:33.231Z,7.74
2022-09-17T19:22:02.312Z,7.75
2022-09-17T19:24:30.014Z,7.74
2022-09-17T19:26:58.822Z,7.72
2022-09-17T19:29:27.445Z,7.77
2022-09-17T19:31:55.215Z,7.79
2022-09-17T19:34:22.925Z,7.74
2022-09-17T19:36:50.659Z,7.77
2022-09-17T19:39:20.062Z,7.77
2022-09-17T19:41:48.035Z,7.76
2022-09-17T19:44:15.697Z,7.78
2022-09-17T19:46:43.887Z,7.82
2022-09-17T19:49:13.768Z,7.83
2022-09-17T19:51:41.517Z,7.89
2022-09-17T19:54:10.230Z,7.91
2022-09-17T19:56:41.964Z,7.96
2022-09-17T19:59:09.787Z,7.98
2022-09-17T20:01:37.887Z,8.03
2022-09-17T20:04:07.011Z,8.06
2022-09-17T20:06:36.471Z,8.08
2022-09-17T20:09:04.459Z,8.14
2022-09-17T20:11:32.354Z,8.20
2022-09-17T20:14:06.393Z,8.26
2022-09-17T20:16:35.810Z,8.34
2022-09-17T20:19:04.381Z,8.36
2022-09-17T20:21:32.156Z,8.39
2022-09-17T20:24:00.806Z,8.43
2022-09-17T20:26:28.727Z,8.42
2022-09-17T20:28:56.609Z,8.45
2022-09-17T20:31:29.479Z,8.34
2022-09-17T20:33:59.399Z,8.09
2022-09-17T20:36:30.671Z,7.88
2022-09-17T20:39:21.158Z,7.77
2022-09-17T20:41:46.446Z,7.69
2022-09-17T20:44:14.304Z,7.63
2022-09-17T20:46:43.620Z,7.64
2022-09-17T20:49:11.342Z,7.64
2022-09-17T20:51:39.073Z,7.56
2022-09-17T20:54:07.611Z,7.58
2022-09-17T20:56:39.232Z,7.61
2022-09-17T20:59:13.395Z,7.68
2022-09-17T21:01:44.984Z,7.69
2022-09-17T21:04:16.420Z,7.72
2022-09-17T21:06:45.136Z,7.69
2022-09-17T21:09:18.079Z,7.72
2022-09-17T21:11:49.253Z,7.66
2022-09-17T21:14:18.231Z,7.71
2022-09-17T21:16:49.168Z,7.67
2022-09-17T21:19:16.953Z,7.66
2022-09-17T21:21:45.132Z,7.58
2022-09-17T21:24:12.810Z,7.49
2022-09-17T21:26:43.517Z,7.49
2022-09-17T21:29:11.221Z,7.42
2022-09-17T21:31:39.622Z,7.44
2022-09-17T21:34:12.146Z,7.46
2022-09-17T21:36:41.630Z,7.45
2022-09-17T21:39:13.188Z,7.43
2022-09-17T21:41:42.800Z,7.37
2022-09-17T21:44:11.423Z,7.27
2022-09-17T21:46:40.252Z,7.11
2022-09-17T21:49:09.995Z,7.03
2022-09-17T21:51:41.447Z,6.91
2022-09-17T21:54:11.672Z,6.75
2022-09-17T21:56:40.026Z,6.64
2022-09-17T21:59:09.377Z,6.61
2022-09-17T22:01:40.304Z,6.54
2022-09-17T22:04:12.529Z,6.58
2022-09-17T22:06:41.202Z,6.46
2022-09-17T22:09:14.456Z,6.45
2022-09-17T22:11:42.557Z,6.46
2022-09-17T22:14:12.415Z,6.45
2022-09-17T22:16:42.475Z,6.38
2022-09-17T22:19:13.024Z,6.47
2022-09-17T22:21:42.643Z,6.43
2022-09-17T22:24:11.737Z,6.40
2022-09-17T22:26:43.304Z,6.28
2022-09-17T22:29:14.363Z,6.21
2022-09-17T22:31:42.415Z,6.13
2022-09-17T22:34:15.171Z,6.14
2022-09-17T22:36:43.372Z,6.13
2022-09-17T22:39:11.636Z,6.11
2022-09-17T22:41:44.224Z,6.11
2022-09-17T22:44:14.046Z,6.02
2022-09-17T22:46:42.880Z,6.03
2022-09-17T22:49:12.431Z,6.06
2022-09-17T22:51:41.311Z,6.08
2022-09-17T22:54:12.102Z,6.12
2022-09-17T22:56:40.489Z,6.09
2022-09-17T22:59:08.674Z,6.16
2022-09-17T23:06:00.846Z,-144.85
2022-09-17T23:08:29.004Z,-144.85
2022-09-17T23:10:56.861Z,-144.85
2022-09-17T23:13:24.829Z,-144.85
2022-09-17T23:15:52.609Z,-144.85
2022-09-17T23:18:21.660Z,-144.85
2022-09-17T23:20:58.187Z,-144.85
2022-09-17T23:23:27.472Z,-144.85
2022-09-17T23:25:55.932Z,-144.85
2022-09-17T23:28:23.716Z,-144.85
2022-09-17T23:30:51.949Z,-144.85
2022-09-17T23:33:19.661Z,-144.85
2022-09-17T23:35:47.317Z,-144.85
2022-09-17T23:38:15.180Z,-144.85
2022-09-17T23:40:44.238Z,-144.85
2022-09-17T23:43:11.909Z,-144.85
2022-09-17T23:45:39.592Z,-144.85
2022-09-17T23:48:09.399Z,-144.85
2022-09-17T23:50:37.053Z,-144.85
2022-09-17T23:53:04.740Z,-144.85
2022-09-17T23:55:32.467Z,-144.85
2022-09-17T23:58:01.502Z,-144.85
